createdAt,value
2018-12-15T00:00:21.059Z,0.00
2018-12-15T00:01:22.720Z,0.00
2018-12-15T00:02:23.331Z,0.00
2018-12-15T00:03:23.968Z,0.00
2018-12-15T00:04:24.564Z,0.00
2018-12-15T00:05:26.228Z,0.00
2018-12-15T00:06:26.834Z,0.00
2018-12-15T00:07:28.513Z,0.00
2018-12-15T00:08:29.107Z,0.00
2018-12-15T00:09:29.741Z,0.00
2018-12-15T00:10:30.340Z,0.00
2018-12-15T00:11:32.008Z,0.00
2018-12-15T00:12:32.609Z,0.00
2018-12-15T00:13:34.276Z,0.00
2018-12-15T00:14:34.860Z,0.00
2018-12-15T00:15:51.080Z,0.00
2018-12-15T00:16:51.681Z,0.00
2018-12-15T00:18:07.161Z,0.00
2018-12-15T00:19:07.795Z,0.00
2018-12-15T00:20:08.401Z,0.00
2018-12-15T00:21:09.006Z,0.00
2018-12-15T00:22:26.536Z,0.00
2018-12-15T00:23:27.138Z,0.00
2018-12-15T00:24:44.579Z,0.00
2018-12-15T00:25:45.167Z,0.00
2018-12-15T00:26:47.891Z,0.00
2018-12-15T00:27:48.601Z,0.00
2018-12-15T00:28:49.332Z,0.00
2018-12-15T00:29:49.921Z,0.00
2018-12-15T00:30:57.512Z,0.00
2018-12-15T00:31:58.122Z,0.00
2018-12-15T00:33:06.540Z,0.00
2018-12-15T00:34:07.153Z,0.00
2018-12-15T00:35:14.612Z,0.00
2018-12-15T00:36:15.183Z,0.00
2018-12-15T00:37:24.589Z,0.00
2018-12-15T00:38:25.195Z,0.00
2018-12-15T00:39:40.582Z,0.00
2018-12-15T00:40:41.189Z,0.00
2018-12-15T00:41:56.576Z,0.00
2018-12-15T00:42:57.186Z,0.00
2018-12-15T00:43:57.815Z,0.00
2018-12-15T00:44:58.407Z,0.00
2018-12-15T00:46:01.126Z,0.00
2018-12-15T00:47:01.704Z,0.00
2018-12-15T00:48:11.047Z,0.00
2018-12-15T00:49:11.636Z,0.00
2018-12-15T00:50:12.289Z,0.00
2018-12-15T00:51:12.884Z,0.00
2018-12-15T00:52:34.504Z,0.00
2018-12-15T00:53:35.094Z,0.00
2018-12-15T00:54:35.760Z,0.00
2018-12-15T00:55:36.595Z,0.00
2018-12-15T00:56:52.047Z,0.00
2018-12-15T00:57:52.672Z,0.00
2018-12-15T00:58:55.339Z,0.00
2018-12-15T00:59:55.947Z,0.00
2018-12-15T01:00:58.640Z,0.00
2018-12-15T01:01:59.401Z,0.00
2018-12-15T01:03:01.130Z,0.00
2018-12-15T01:04:01.717Z,0.00
2018-12-15T01:05:04.404Z,0.00
2018-12-15T01:06:05.005Z,0.00
2018-12-15T01:07:13.545Z,0.00
2018-12-15T01:08:14.132Z,0.00
2018-12-15T01:09:23.581Z,0.00
2018-12-15T01:10:24.180Z,0.00
2018-12-15T01:11:32.597Z,0.00
2018-12-15T01:12:33.352Z,0.00
2018-12-15T01:13:35.981Z,0.00
2018-12-15T01:14:36.597Z,0.00
2018-12-15T01:15:45.113Z,0.00
2018-12-15T01:16:45.708Z,0.00
2018-12-15T01:18:02.016Z,0.00
2018-12-15T01:19:02.620Z,0.00
2018-12-15T01:20:18.109Z,0.00
2018-12-15T01:21:18.708Z,0.00
2018-12-15T01:22:19.365Z,0.00
2018-12-15T01:23:19.837Z,0.00
2018-12-15T01:25:39.706Z,0.00
2018-12-15T01:26:41.389Z,0.00
2018-12-15T01:27:42.012Z,0.00
2018-12-15T01:29:03.622Z,0.00
2018-12-15T01:30:04.226Z,0.00
2018-12-15T01:31:20.535Z,0.00
2018-12-15T01:32:21.138Z,0.00
2018-12-15T01:33:30.590Z,0.00
2018-12-15T01:34:31.188Z,0.00
2018-12-15T01:35:40.527Z,0.00
2018-12-15T01:36:41.133Z,0.00
2018-12-15T01:39:01.392Z,0.00
2018-12-15T01:41:12.179Z,0.00
2018-12-15T01:42:19.581Z,0.00
2018-12-15T01:43:20.204Z,0.00
2018-12-15T01:44:35.559Z,0.00
2018-12-15T01:45:36.194Z,0.00
2018-12-15T01:46:38.862Z,0.00
2018-12-15T01:47:39.460Z,0.00
2018-12-15T01:49:02.216Z,0.00
2018-12-15T01:50:02.796Z,0.00
2018-12-15T01:51:04.489Z,0.00
2018-12-15T01:52:05.087Z,0.00
2018-12-15T01:54:18.217Z,0.00
2018-12-15T01:55:18.859Z,0.00
2018-12-15T01:56:19.449Z,0.00
2018-12-15T01:57:49.077Z,0.00
2018-12-15T01:58:49.683Z,0.00
2018-12-15T01:59:51.340Z,0.00
2018-12-15T02:00:51.916Z,0.00
2018-12-15T02:01:54.524Z,0.00
2018-12-15T02:02:55.124Z,0.00
2018-12-15T02:04:03.547Z,0.00
2018-12-15T02:05:04.144Z,0.00
2018-12-15T02:06:06.906Z,0.00
2018-12-15T02:07:07.486Z,0.00
2018-12-15T02:08:08.179Z,0.00
2018-12-15T02:09:08.775Z,0.00
2018-12-15T02:10:09.425Z,0.00
2018-12-15T02:11:10.015Z,0.00
2018-12-15T02:12:10.662Z,0.00
2018-12-15T02:13:11.268Z,0.00
2018-12-15T02:14:11.950Z,0.00
2018-12-15T02:15:12.534Z,0.00
2018-12-15T02:16:13.166Z,0.00
2018-12-15T02:17:14.029Z,0.00
2018-12-15T02:18:14.688Z,0.00
2018-12-15T02:19:15.300Z,0.00
2018-12-15T02:20:15.931Z,0.00
2018-12-15T02:21:16.546Z,0.00
2018-12-15T02:22:17.199Z,0.00
2018-12-15T02:23:17.774Z,0.00
2018-12-15T02:24:18.423Z,0.00
2018-12-15T02:25:19.010Z,0.00
2018-12-15T02:26:19.609Z,0.00
2018-12-15T02:27:20.278Z,0.00
2018-12-15T02:28:20.874Z,0.00
2018-12-15T02:29:21.559Z,0.00
2018-12-15T02:30:22.113Z,0.00
2018-12-15T02:31:22.759Z,0.00
2018-12-15T02:32:23.371Z,0.00
2018-12-15T02:33:25.029Z,0.00
2018-12-15T02:34:25.635Z,0.00
2018-12-15T02:35:26.279Z,0.00
2018-12-15T02:36:26.872Z,0.00
2018-12-15T02:37:27.523Z,0.00
2018-12-15T02:38:28.123Z,0.00
2018-12-15T02:39:28.754Z,0.00
2018-12-15T02:40:29.385Z,0.00
2018-12-15T02:41:29.983Z,0.00
2018-12-15T02:42:30.926Z,0.00
2018-12-15T02:43:31.539Z,0.00
2018-12-15T02:44:32.266Z,0.00
2018-12-15T02:45:33.015Z,0.00
2018-12-15T02:46:33.715Z,0.00
2018-12-15T02:47:41.239Z,0.00
2018-12-15T02:48:34.960Z,0.00
2018-12-15T02:49:35.565Z,0.00
2018-12-15T02:50:36.206Z,0.00
2018-12-15T02:51:36.792Z,0.00
2018-12-15T02:52:37.468Z,0.00
2018-12-15T02:53:38.044Z,0.00
2018-12-15T02:54:38.694Z,0.00
2018-12-15T02:55:39.282Z,0.00
2018-12-15T02:56:39.935Z,0.00
2018-12-15T02:57:40.520Z,0.00
2018-12-15T02:58:41.173Z,0.00
2018-12-15T02:59:41.768Z,0.00
2018-12-15T03:00:42.426Z,0.00
2018-12-15T03:01:43.020Z,0.00
2018-12-15T03:02:43.661Z,0.00
2018-12-15T03:03:44.256Z,0.00
2018-12-15T03:04:44.894Z,0.00
2018-12-15T03:05:45.516Z,0.00
2018-12-15T03:06:46.146Z,0.00
2018-12-15T03:07:46.752Z,0.00
2018-12-15T03:08:47.339Z,0.00
2018-12-15T03:09:47.993Z,0.00
2018-12-15T03:10:48.606Z,0.00
2018-12-15T03:11:49.248Z,0.00
2018-12-15T03:12:49.852Z,0.00
2018-12-15T03:13:50.487Z,0.00
2018-12-15T03:14:51.330Z,0.00
2018-12-15T03:15:52.045Z,0.00
2018-12-15T03:16:52.627Z,0.00
2018-12-15T03:17:53.209Z,0.00
2018-12-15T03:18:53.889Z,0.00
2018-12-15T03:19:54.488Z,0.00
2018-12-15T03:20:55.136Z,0.00
2018-12-15T03:21:55.732Z,0.00
2018-12-15T03:22:56.377Z,0.00
2018-12-15T03:23:57.117Z,0.00
2018-12-15T03:24:57.717Z,0.00
2018-12-15T03:25:58.327Z,0.00
2018-12-15T03:26:58.955Z,0.00
2018-12-15T03:27:59.568Z,0.00
2018-12-15T03:29:00.200Z,0.00
2018-12-15T03:30:00.838Z,0.00
2018-12-15T03:31:01.443Z,0.00
2018-12-15T03:32:02.068Z,0.00
2018-12-15T03:33:02.661Z,0.00
2018-12-15T03:34:03.308Z,0.00
2018-12-15T03:35:03.924Z,0.00
2018-12-15T03:36:04.517Z,0.00
2018-12-15T03:37:07.237Z,0.00
2018-12-15T03:38:07.825Z,0.00
2018-12-15T03:39:08.458Z,0.00
2018-12-15T03:40:09.069Z,0.00
2018-12-15T03:41:12.687Z,0.00
2018-12-15T03:42:13.278Z,0.00
2018-12-15T03:43:13.913Z,0.00
2018-12-15T03:44:14.511Z,0.00
2018-12-15T03:45:15.265Z,0.00
2018-12-15T03:46:15.849Z,0.00
2018-12-15T03:47:17.521Z,0.00
2018-12-15T03:48:18.131Z,0.00
2018-12-15T03:49:18.715Z,0.00
2018-12-15T03:50:19.317Z,0.00
2018-12-15T03:51:20.007Z,0.00
2018-12-15T03:52:20.593Z,0.00
2018-12-15T03:53:21.252Z,0.00
2018-12-15T03:54:21.852Z,0.00
2018-12-15T03:55:22.596Z,0.00
2018-12-15T03:56:23.189Z,0.00
2018-12-15T03:57:23.771Z,0.00
2018-12-15T03:58:24.362Z,0.00
2018-12-15T03:59:24.962Z,0.00
2018-12-15T04:00:25.599Z,0.00
2018-12-15T04:01:26.234Z,0.00
2018-12-15T04:02:26.833Z,0.00
2018-12-15T04:03:27.423Z,0.00
2018-12-15T04:04:30.141Z,0.00
2018-12-15T04:05:30.744Z,0.00
2018-12-15T04:06:31.371Z,0.00
2018-12-15T04:07:31.969Z,0.00
2018-12-15T04:08:32.603Z,0.00
2018-12-15T04:09:33.210Z,0.00
2018-12-15T04:10:33.850Z,0.00
2018-12-15T04:11:34.434Z,0.00
2018-12-15T04:12:43.090Z,0.00
2018-12-15T04:13:43.679Z,0.00
2018-12-15T04:14:44.315Z,0.00
2018-12-15T04:15:44.928Z,0.00
2018-12-15T04:16:45.499Z,0.00
2018-12-15T04:17:46.105Z,0.00
2018-12-15T04:18:47.198Z,0.00
2018-12-15T04:19:47.796Z,0.00
2018-12-15T04:20:48.465Z,0.00
2018-12-15T04:21:49.053Z,0.00
2018-12-15T04:22:49.699Z,0.00
2018-12-15T04:23:50.285Z,0.00
2018-12-15T04:24:50.948Z,0.00
2018-12-15T04:25:51.543Z,0.00
2018-12-15T04:26:52.179Z,0.00
2018-12-15T04:27:52.772Z,0.00
2018-12-15T04:28:53.423Z,0.00
2018-12-15T04:29:54.009Z,0.00
2018-12-15T04:30:54.677Z,0.00
2018-12-15T04:31:55.253Z,0.00
2018-12-15T04:32:56.935Z,0.00
2018-12-15T04:33:57.529Z,0.00
2018-12-15T04:34:58.181Z,0.00
2018-12-15T04:35:58.763Z,0.00
2018-12-15T04:36:59.424Z,0.00
2018-12-15T04:38:00.021Z,0.00
2018-12-15T04:39:00.664Z,0.00
2018-12-15T04:40:01.247Z,0.00
2018-12-15T04:41:02.913Z,0.00
2018-12-15T04:42:03.517Z,0.00
2018-12-15T04:43:04.159Z,0.00
2018-12-15T04:44:04.751Z,0.00
2018-12-15T04:45:05.399Z,0.00
2018-12-15T04:46:05.992Z,0.00
2018-12-15T04:47:06.645Z,0.00
2018-12-15T04:48:11.020Z,0.00
2018-12-15T04:49:07.862Z,0.00
2018-12-15T04:50:08.454Z,0.00
2018-12-15T04:51:09.141Z,0.00
2018-12-15T04:52:09.718Z,0.00
2018-12-15T04:53:10.372Z,0.00
2018-12-15T04:54:10.961Z,0.00
2018-12-15T04:55:11.614Z,0.00
2018-12-15T04:56:12.214Z,0.00
2018-12-15T04:57:13.874Z,0.00
2018-12-15T04:58:14.472Z,0.00
2018-12-15T04:59:15.131Z,0.00
2018-12-15T05:00:15.711Z,0.00
2018-12-15T05:01:16.297Z,0.00
2018-12-15T05:02:16.916Z,0.00
2018-12-15T05:03:17.519Z,0.00
2018-12-15T05:04:19.176Z,0.00
2018-12-15T05:05:19.741Z,0.00
2018-12-15T05:06:20.395Z,0.00
2018-12-15T05:07:20.981Z,0.00
2018-12-15T05:08:21.576Z,0.00
2018-12-15T05:09:22.169Z,0.00
2018-12-15T05:10:22.759Z,0.00
2018-12-15T05:11:23.363Z,0.00
2018-12-15T05:12:24.022Z,0.00
2018-12-15T05:13:25.063Z,0.00
2018-12-15T05:14:25.692Z,0.00
2018-12-15T05:15:26.261Z,0.00
2018-12-15T05:16:26.837Z,0.00
2018-12-15T05:17:27.431Z,0.00
2018-12-15T05:18:28.135Z,0.00
2018-12-15T05:19:28.755Z,0.00
2018-12-15T05:20:30.422Z,0.00
2018-12-15T05:21:31.008Z,0.00
2018-12-15T05:22:31.654Z,0.00
2018-12-15T05:23:32.283Z,0.00
2018-12-15T05:24:32.899Z,0.00
2018-12-15T05:25:33.481Z,0.00
2018-12-15T05:26:35.173Z,0.00
2018-12-15T05:27:35.746Z,0.00
2018-12-15T05:28:36.390Z,0.00
2018-12-15T05:29:36.999Z,0.00
2018-12-15T05:30:37.592Z,0.00
2018-12-15T05:31:38.215Z,0.00
2018-12-15T05:32:38.891Z,0.00
2018-12-15T05:33:39.484Z,0.00
2018-12-15T05:34:40.128Z,0.00
2018-12-15T05:35:41.924Z,0.00
2018-12-15T05:36:42.596Z,0.00
2018-12-15T05:37:44.426Z,0.00
2018-12-15T05:38:44.981Z,0.00
2018-12-15T05:39:45.570Z,0.00
2018-12-15T05:40:46.212Z,0.00
2018-12-15T05:41:46.811Z,0.00
2018-12-15T05:42:47.464Z,0.00
2018-12-15T05:43:48.038Z,0.00
2018-12-15T05:44:48.714Z,0.00
2018-12-15T05:45:49.309Z,0.00
2018-12-15T05:46:49.937Z,0.00
2018-12-15T05:47:50.517Z,0.00
2018-12-15T05:48:51.134Z,0.00
2018-12-15T05:49:51.700Z,0.00
2018-12-15T05:50:52.418Z,0.00
2018-12-15T05:51:53.014Z,0.00
2018-12-15T05:52:53.657Z,0.00
2018-12-15T05:53:54.262Z,0.00
2018-12-15T05:54:54.953Z,0.00
2018-12-15T05:55:55.493Z,0.00
2018-12-15T05:56:56.140Z,0.00
2018-12-15T05:57:57.105Z,0.00
2018-12-15T05:58:57.785Z,0.00
2018-12-15T05:59:58.396Z,0.00
2018-12-15T06:00:59.030Z,0.00
2018-12-15T06:01:59.634Z,0.00
2018-12-15T06:03:00.272Z,0.00
2018-12-15T06:04:00.867Z,0.00
2018-12-15T06:05:01.525Z,0.00
2018-12-15T06:06:02.106Z,0.00
2018-12-15T06:07:02.695Z,0.00
2018-12-15T06:08:03.306Z,0.00
2018-12-15T06:09:03.892Z,0.00
2018-12-15T06:10:04.596Z,0.00
2018-12-15T06:11:05.108Z,0.00
2018-12-15T06:12:05.761Z,0.00
2018-12-15T06:13:06.355Z,0.00
2018-12-15T06:14:07.002Z,0.00
2018-12-15T06:15:07.601Z,0.00
2018-12-15T06:16:08.244Z,0.00
2018-12-15T06:17:08.844Z,0.00
2018-12-15T06:18:09.472Z,0.00
2018-12-15T06:19:10.071Z,0.00
2018-12-15T06:20:10.714Z,0.00
2018-12-15T06:21:11.334Z,0.00
2018-12-15T06:22:11.955Z,0.00
2018-12-15T06:23:12.561Z,0.00
2018-12-15T06:24:13.214Z,0.00
2018-12-15T06:25:13.804Z,0.00
2018-12-15T06:26:14.466Z,0.00
2018-12-15T06:27:15.036Z,0.00
2018-12-15T06:28:15.900Z,0.00
2018-12-15T06:29:16.491Z,0.00
2018-12-15T06:30:17.136Z,0.00
2018-12-15T06:31:17.733Z,0.00
2018-12-15T06:32:18.378Z,0.00
2018-12-15T06:33:18.968Z,0.00
2018-12-15T06:34:19.621Z,0.00
2018-12-15T06:35:20.214Z,0.00
2018-12-15T06:36:20.942Z,0.00
2018-12-15T06:37:21.594Z,0.00
2018-12-15T06:38:23.224Z,0.00
2018-12-15T06:39:23.834Z,0.00
2018-12-15T06:40:24.432Z,0.00
2018-12-15T06:41:25.605Z,0.00
2018-12-15T06:42:26.199Z,0.00
2018-12-15T06:43:26.954Z,0.00
2018-12-15T06:44:27.570Z,0.00
2018-12-15T06:45:28.192Z,0.00
2018-12-15T06:46:28.787Z,0.00
2018-12-15T06:47:29.437Z,0.00
2018-12-15T06:48:30.021Z,0.00
2018-12-15T06:49:30.662Z,0.00
2018-12-15T06:50:31.277Z,0.00
2018-12-15T06:51:31.909Z,0.00
2018-12-15T06:52:32.521Z,0.00
2018-12-15T06:53:33.155Z,0.00
2018-12-15T06:54:33.756Z,0.00
2018-12-15T06:55:34.346Z,0.00
2018-12-15T06:56:34.983Z,0.00
2018-12-15T06:57:35.561Z,0.00
2018-12-15T06:58:36.150Z,0.00
2018-12-15T06:59:36.775Z,0.00
2018-12-15T07:00:37.380Z,0.00
2018-12-15T07:01:38.016Z,0.00
2018-12-15T07:02:38.637Z,0.00
2018-12-15T07:03:39.255Z,0.00
2018-12-15T07:04:39.863Z,0.00
2018-12-15T07:05:40.518Z,0.00
2018-12-15T07:06:42.114Z,0.00
2018-12-15T07:07:41.682Z,0.00
2018-12-15T07:08:42.375Z,0.00
2018-12-15T07:09:42.980Z,0.00
2018-12-15T07:10:43.622Z,0.00
2018-12-15T07:11:44.203Z,0.00
2018-12-15T07:12:44.975Z,0.00
2018-12-15T07:13:45.551Z,0.00
2018-12-15T07:14:46.154Z,0.00
2018-12-15T07:15:46.927Z,0.00
2018-12-15T07:16:47.537Z,0.00
2018-12-15T07:17:48.276Z,0.00
2018-12-15T07:18:50.054Z,0.00
2018-12-15T07:19:49.453Z,0.00
2018-12-15T07:20:50.049Z,0.00
2018-12-15T07:21:50.751Z,0.00
2018-12-15T07:22:51.348Z,0.00
2018-12-15T07:23:52.107Z,0.00
2018-12-15T07:24:52.696Z,0.00
2018-12-15T07:25:53.289Z,0.00
2018-12-15T07:26:54.272Z,0.00
2018-12-15T07:27:54.882Z,0.00
2018-12-15T07:28:55.518Z,0.00
2018-12-15T07:29:56.149Z,0.00
2018-12-15T07:30:56.715Z,0.00
2018-12-15T07:31:57.377Z,0.00
2018-12-15T07:32:57.962Z,0.00
2018-12-15T07:33:58.627Z,0.00
2018-12-15T07:35:01.035Z,0.00
2018-12-15T07:35:59.872Z,0.00
2018-12-15T07:37:00.582Z,4.00
2018-12-15T07:38:01.164Z,4.00
2018-12-15T07:39:01.825Z,4.00
2018-12-15T07:40:02.539Z,4.00
2018-12-15T07:41:03.017Z,4.00
2018-12-15T07:42:03.683Z,4.00
2018-12-15T07:43:04.278Z,4.00
2018-12-15T07:44:04.954Z,4.00
2018-12-15T07:45:05.549Z,0.00
2018-12-15T07:46:06.172Z,0.00
2018-12-15T07:47:06.778Z,0.00
2018-12-15T07:48:07.412Z,0.00
2018-12-15T07:49:08.086Z,0.00
2018-12-15T07:50:08.765Z,4.00
2018-12-15T07:51:09.362Z,4.00
2018-12-15T07:52:11.050Z,4.00
2018-12-15T07:53:11.640Z,4.00
2018-12-15T07:54:12.376Z,4.00
2018-12-15T07:55:12.987Z,4.00
2018-12-15T07:56:13.587Z,4.00
2018-12-15T07:57:14.173Z,4.00
2018-12-15T07:58:15.784Z,4.00
2018-12-15T07:59:16.387Z,4.00
2018-12-15T08:00:17.034Z,4.00
2018-12-15T08:01:17.618Z,4.00
2018-12-15T08:02:18.290Z,4.00
2018-12-15T08:03:18.867Z,4.00
2018-12-15T08:04:21.565Z,8.00
2018-12-15T08:05:22.162Z,8.00
2018-12-15T08:06:23.216Z,4.00
2018-12-15T08:07:23.798Z,4.00
2018-12-15T08:08:26.808Z,4.00
2018-12-15T08:09:27.415Z,8.00
2018-12-15T08:10:28.004Z,8.00
2018-12-15T08:11:28.596Z,8.00
2018-12-15T08:12:29.212Z,4.00
2018-12-15T08:13:29.834Z,4.00
2018-12-15T08:14:30.420Z,4.00
2018-12-15T08:15:32.084Z,8.00
2018-12-15T08:16:32.676Z,8.00
2018-12-15T08:17:33.794Z,8.00
2018-12-15T08:18:36.544Z,8.00
2018-12-15T08:19:37.122Z,8.00
2018-12-15T08:20:37.732Z,8.00
2018-12-15T08:21:38.327Z,8.00
2018-12-15T08:22:38.989Z,8.00
2018-12-15T08:23:39.632Z,8.00
2018-12-15T08:24:40.212Z,8.00
2018-12-15T08:25:47.612Z,8.00
2018-12-15T08:26:48.205Z,8.00
2018-12-15T08:28:03.599Z,8.00
2018-12-15T08:29:04.198Z,8.00
2018-12-15T08:30:06.060Z,8.00
2018-12-15T08:31:06.481Z,8.00
2018-12-15T08:32:07.114Z,8.00
2018-12-15T08:33:07.709Z,12.00
2018-12-15T08:34:16.036Z,8.00
2018-12-15T08:35:16.637Z,8.00
2018-12-15T08:36:25.063Z,8.00
2018-12-15T08:37:25.660Z,8.00
2018-12-15T08:39:37.638Z,12.00
2018-12-15T08:40:38.327Z,12.00
2018-12-15T08:41:38.893Z,8.00
2018-12-15T08:42:46.090Z,12.00
2018-12-15T08:43:46.692Z,12.00
2018-12-15T08:45:03.110Z,8.00
2018-12-15T08:46:03.708Z,8.00
2018-12-15T08:47:05.380Z,8.00
2018-12-15T08:48:05.978Z,8.00
2018-12-15T08:49:13.584Z,12.00
2018-12-15T08:50:14.183Z,12.00
2018-12-15T08:51:35.931Z,12.00
2018-12-15T08:52:36.545Z,16.00
2018-12-15T08:53:44.161Z,12.00
2018-12-15T08:54:44.719Z,16.00
2018-12-15T08:56:00.105Z,16.00
2018-12-15T08:57:00.739Z,12.00
2018-12-15T08:58:02.416Z,12.00
2018-12-15T08:59:02.993Z,12.00
2018-12-15T09:00:10.643Z,16.00
2018-12-15T09:01:11.164Z,16.00
2018-12-15T09:02:11.828Z,16.00
2018-12-15T09:03:12.421Z,16.00
2018-12-15T09:04:19.620Z,16.00
2018-12-15T09:05:20.227Z,16.00
2018-12-15T09:06:36.630Z,16.00
2018-12-15T09:07:37.258Z,16.00
2018-12-15T09:08:37.976Z,16.00
2018-12-15T09:09:38.548Z,20.00
2018-12-15T09:10:39.165Z,20.00
2018-12-15T09:11:39.769Z,20.00
2018-12-15T09:12:40.374Z,20.00
2018-12-15T09:13:41.036Z,20.00
2018-12-15T09:14:41.661Z,20.00
2018-12-15T09:15:42.244Z,20.00
2018-12-15T09:16:42.874Z,20.00
2018-12-15T09:17:43.433Z,20.00
2018-12-15T09:18:44.041Z,24.00
2018-12-15T09:19:44.632Z,20.00
2018-12-15T09:20:45.229Z,24.00
2018-12-15T09:21:45.955Z,24.00
2018-12-15T09:22:46.554Z,28.00
2018-12-15T09:23:47.243Z,24.00
2018-12-15T09:24:47.845Z,24.00
2018-12-15T09:25:48.445Z,24.00
2018-12-15T09:26:49.042Z,24.00
2018-12-15T09:27:49.627Z,24.00
2018-12-15T09:28:50.233Z,24.00
2018-12-15T09:29:50.816Z,24.00
2018-12-15T09:30:51.430Z,24.00
2018-12-15T09:31:52.039Z,24.00
2018-12-15T09:32:52.620Z,24.00
2018-12-15T09:33:53.234Z,24.00
2018-12-15T09:34:53.808Z,24.00
2018-12-15T09:35:54.413Z,24.00
2018-12-15T09:36:55.011Z,28.00
2018-12-15T09:37:55.622Z,28.00
2018-12-15T09:38:56.231Z,28.00
2018-12-15T09:39:56.800Z,24.00
2018-12-15T09:40:57.398Z,28.00
2018-12-15T09:41:58.008Z,24.00
2018-12-15T09:51:15.656Z,28.00
2018-12-15T09:52:16.377Z,28.00
2018-12-15T09:53:18.063Z,28.00
2018-12-15T09:54:18.716Z,28.00
2018-12-15T09:55:19.386Z,28.00
2018-12-15T09:56:27.732Z,28.00
2018-12-15T09:57:28.362Z,28.00
2018-12-15T09:58:29.058Z,28.00
2018-12-15T09:59:30.019Z,28.00
2018-12-15T10:00:33.268Z,28.00
2018-12-15T10:01:33.918Z,28.00
2018-12-15T10:02:36.677Z,28.00
2018-12-15T10:03:37.353Z,28.00
2018-12-15T10:04:40.112Z,28.00
2018-12-15T10:05:40.762Z,24.00
2018-12-15T10:06:42.544Z,24.00
2018-12-15T10:07:43.172Z,24.00
2018-12-15T10:08:51.757Z,24.00
2018-12-15T10:09:52.460Z,28.00
2018-12-15T10:11:18.712Z,28.00
2018-12-15T10:12:19.361Z,24.00
2018-12-15T10:13:20.070Z,24.00
2018-12-15T10:14:20.650Z,28.00
2018-12-15T10:15:45.666Z,28.00
2018-12-15T10:16:46.326Z,28.00
2018-12-15T10:18:59.321Z,28.00
2018-12-15T10:20:28.702Z,28.00
2018-12-15T10:21:29.368Z,28.00
2018-12-15T10:22:44.725Z,32.00
2018-12-15T10:23:45.181Z,28.00
2018-12-15T10:25:01.724Z,32.00
2018-12-15T10:26:02.365Z,28.00
2018-12-15T10:27:03.043Z,28.00
2018-12-15T10:28:10.742Z,28.00
2018-12-15T10:29:11.379Z,32.00
2018-12-15T10:30:13.453Z,28.00
2018-12-15T10:31:13.755Z,32.00
2018-12-15T10:32:22.236Z,32.00
2018-12-15T10:33:22.881Z,32.00
2018-12-15T10:34:25.642Z,36.00
2018-12-15T10:35:26.298Z,36.00
2018-12-15T10:36:28.002Z,36.00
2018-12-15T10:37:28.664Z,32.00
2018-12-15T10:38:38.316Z,36.00
2018-12-15T10:39:38.893Z,36.00
2018-12-15T10:40:41.962Z,32.00
2018-12-15T10:41:42.589Z,36.00
2018-12-15T10:42:43.523Z,40.00
2018-12-15T10:43:44.149Z,40.00
2018-12-15T10:45:01.840Z,36.00
2018-12-15T10:46:02.477Z,36.00
2018-12-15T10:47:05.282Z,36.00
2018-12-15T10:48:05.944Z,40.00
2018-12-15T10:49:14.178Z,36.00
2018-12-15T10:50:14.795Z,40.00
2018-12-15T10:51:37.549Z,36.00
2018-12-15T10:52:38.209Z,44.00
2018-12-15T10:53:40.105Z,44.00
2018-12-15T10:54:40.536Z,44.00
2018-12-15T11:05:52.256Z,52.00
2018-12-15T11:06:52.978Z,48.00
2018-12-15T11:07:53.607Z,48.00
2018-12-15T11:08:54.276Z,48.00
2018-12-15T11:09:54.898Z,44.00
2018-12-15T11:10:55.660Z,52.00
2018-12-15T11:11:56.305Z,52.00
2018-12-15T11:12:56.942Z,48.00
2018-12-15T11:13:57.633Z,48.00
2018-12-15T11:14:58.246Z,44.00
2018-12-15T11:15:58.903Z,40.00
2018-12-15T11:16:59.544Z,44.00
2018-12-15T11:18:00.194Z,40.00
2018-12-15T11:19:00.857Z,40.00
2018-12-15T11:20:01.521Z,44.00
2018-12-15T11:21:02.155Z,40.00
2018-12-15T11:22:02.797Z,44.00
2018-12-15T11:24:22.015Z,48.00
2018-12-15T11:25:31.535Z,44.00
2018-12-15T11:26:32.191Z,44.00
2018-12-15T11:27:39.426Z,44.00
2018-12-15T11:28:40.089Z,44.00
2018-12-15T11:29:40.979Z,44.00
2018-12-15T11:30:41.632Z,48.00
2018-12-15T11:31:42.285Z,48.00
2018-12-15T11:32:42.940Z,48.00
2018-12-15T11:33:43.582Z,44.00
2018-12-15T11:34:44.236Z,44.00
2018-12-15T11:35:44.888Z,44.00
2018-12-15T11:36:45.530Z,48.00
2018-12-15T11:37:46.254Z,44.00
2018-12-15T11:38:46.921Z,44.00
2018-12-15T11:39:47.557Z,40.00
2018-12-15T11:40:48.582Z,44.00
2018-12-15T11:41:49.221Z,44.00
2018-12-15T11:42:49.973Z,40.00
2018-12-15T11:43:50.971Z,44.00
2018-12-15T11:44:51.622Z,44.00
2018-12-15T11:45:52.255Z,44.00
2018-12-15T11:46:52.979Z,40.00
2018-12-15T11:47:53.633Z,44.00
2018-12-15T11:48:54.291Z,40.00
2018-12-15T11:49:54.950Z,40.00
2018-12-15T11:50:55.622Z,44.00
2018-12-15T11:51:58.374Z,44.00
2018-12-15T11:52:58.994Z,44.00
2018-12-15T11:53:59.655Z,44.00
2018-12-15T11:55:00.414Z,40.00
2018-12-15T11:56:01.058Z,40.00
2018-12-15T11:57:01.751Z,40.00
2018-12-15T11:58:02.410Z,40.00
2018-12-15T11:59:05.249Z,44.00
2018-12-15T12:00:05.867Z,40.00
2018-12-15T12:01:13.530Z,40.00
2018-12-15T12:02:14.208Z,44.00
2018-12-15T12:03:14.987Z,40.00
2018-12-15T12:04:15.621Z,40.00
2018-12-15T12:05:16.273Z,40.00
2018-12-15T12:06:16.918Z,36.00
2018-12-15T12:07:17.580Z,36.00
2018-12-15T12:08:18.392Z,36.00
2018-12-15T12:09:19.032Z,36.00
2018-12-15T12:10:19.849Z,36.00
2018-12-15T12:11:20.491Z,36.00
2018-12-15T12:12:21.280Z,40.00
2018-12-15T12:13:21.965Z,40.00
2018-12-15T12:14:24.791Z,36.00
2018-12-15T12:15:25.432Z,40.00
2018-12-15T12:16:26.087Z,40.00
2018-12-15T12:17:26.800Z,40.00
2018-12-15T12:18:27.373Z,36.00
2018-12-15T12:19:28.002Z,44.00
2018-12-15T12:20:28.810Z,44.00
2018-12-15T12:21:29.459Z,44.00
2018-12-15T12:22:30.253Z,44.00
2018-12-15T12:23:31.019Z,48.00
2018-12-15T12:24:32.760Z,48.00
2018-12-15T12:25:33.376Z,44.00
2018-12-15T12:26:34.031Z,48.00
2018-12-15T12:27:35.814Z,44.00
2018-12-15T12:28:36.482Z,40.00
2018-12-15T12:29:37.278Z,40.00
2018-12-15T12:30:37.999Z,40.00
2018-12-15T12:31:39.768Z,40.00
2018-12-15T12:32:40.386Z,40.00
2018-12-15T12:33:42.545Z,40.00
2018-12-15T12:34:42.855Z,44.00
2018-12-15T12:35:43.517Z,40.00
2018-12-15T12:36:44.290Z,44.00
2018-12-15T12:37:44.958Z,44.00
2018-12-15T12:38:45.632Z,36.00
2018-12-15T12:39:46.274Z,40.00
2018-12-15T12:40:47.991Z,40.00
2018-12-15T12:41:48.643Z,40.00
2018-12-15T12:42:49.294Z,40.00
2018-12-15T12:43:49.968Z,36.00
2018-12-15T12:44:50.618Z,36.00
2018-12-15T12:45:51.317Z,36.00
2018-12-15T12:46:51.997Z,36.00
2018-12-15T12:47:52.639Z,36.00
2018-12-15T12:48:53.278Z,40.00
2018-12-15T12:49:56.929Z,40.00
2018-12-15T12:50:55.663Z,40.00
2018-12-15T12:51:57.433Z,40.00
2018-12-15T12:52:58.092Z,36.00
2018-12-15T12:54:19.832Z,36.00
2018-12-15T12:55:20.466Z,40.00
2018-12-15T12:56:27.910Z,40.00
2018-12-15T12:57:28.553Z,40.00
2018-12-15T12:58:29.249Z,44.00
2018-12-15T12:59:29.884Z,36.00
2018-12-15T13:00:45.451Z,40.00
2018-12-15T13:01:46.097Z,44.00
2018-12-15T13:03:58.059Z,44.00
2018-12-15T13:05:06.453Z,40.00
2018-12-15T13:06:07.115Z,40.00
2018-12-15T13:07:09.854Z,40.00
2018-12-15T13:08:10.489Z,36.00
2018-12-15T13:09:12.217Z,40.00
2018-12-15T13:10:12.860Z,40.00
2018-12-15T13:11:20.434Z,36.00
2018-12-15T13:12:21.067Z,36.00
2018-12-15T13:13:22.820Z,36.00
2018-12-15T13:14:23.463Z,36.00
2018-12-15T13:15:24.163Z,36.00
2018-12-15T13:16:24.794Z,32.00
2018-12-15T13:17:25.480Z,32.00
2018-12-15T13:18:26.125Z,32.00
2018-12-15T13:19:28.905Z,36.00
2018-12-15T13:20:29.533Z,36.00
2018-12-15T13:21:32.224Z,32.00
2018-12-15T13:22:32.900Z,32.00
2018-12-15T13:23:34.589Z,32.00
2018-12-15T13:24:35.270Z,32.00
2018-12-15T13:25:35.937Z,24.00
2018-12-15T13:26:36.582Z,28.00
2018-12-15T13:27:37.231Z,28.00
2018-12-15T13:28:37.890Z,28.00
2018-12-15T13:29:38.538Z,28.00
2018-12-15T13:30:39.243Z,32.00
2018-12-15T13:31:39.886Z,32.00
2018-12-15T13:32:40.625Z,32.00
2018-12-15T13:33:41.260Z,28.00
2018-12-15T13:34:41.953Z,28.00
2018-12-15T13:35:42.610Z,24.00
2018-12-15T13:36:43.275Z,24.00
2018-12-15T13:37:43.919Z,24.00
2018-12-15T13:38:44.577Z,24.00
2018-12-15T13:39:45.212Z,24.00
2018-12-15T13:40:45.965Z,24.00
2018-12-15T13:41:46.616Z,28.00
2018-12-15T13:42:47.303Z,24.00
2018-12-15T13:43:47.980Z,24.00
2018-12-15T13:44:48.660Z,20.00
2018-12-15T13:45:49.277Z,24.00
2018-12-15T13:46:56.893Z,24.00
2018-12-15T13:47:57.553Z,24.00
2018-12-15T13:48:58.327Z,20.00
2018-12-15T13:49:58.964Z,20.00
2018-12-15T13:50:59.654Z,20.00
2018-12-15T13:52:00.309Z,16.00
2018-12-15T13:53:01.018Z,16.00
2018-12-15T13:54:01.647Z,16.00
2018-12-15T13:55:02.372Z,16.00
2018-12-15T13:56:03.011Z,20.00
2018-12-15T13:57:04.720Z,20.00
2018-12-15T13:58:05.448Z,16.00
2018-12-15T13:59:06.065Z,16.00
2018-12-15T14:00:06.712Z,16.00